Time;durP1;ratioP1;P1;durP2;ratioP2;P2;SDS_P1;SDS_P2;PMS_P1;PMS_P2;Temp;Humidity;BMP_temperature;BMP_pressure;BME280_temperature;BME280_humidity;BME280_pressure;Samples;Min_cycle;Max_cycle;Signal;HPM_P1;HPM_P2
2022/08/02 00:01:19;;;;;;;4.50;1.45;;;12.00;99.90;;;;;;6280322;22;20007;-81
2022/08/02 00:03:44;;;;;;;3.55;1.27;;;12.00;99.90;;;;;;6279347;22;20086;-81
2022/08/02 00:06:10;;;;;;;6.00;1.35;;;12.00;99.90;;;;;;6278490;22;20026;-81
2022/08/02 00:08:36;;;;;;;2.95;1.02;;;12.00;99.90;;;;;;6252111;22;20023;-81
2022/08/02 00:11:01;;;;;;;4.88;1.27;;;12.00;99.90;;;;;;6279334;22;20015;-81
2022/08/02 00:13:27;;;;;;;3.03;1.02;;;12.00;99.90;;;;;;6280328;22;20007;-81
2022/08/02 00:15:52;;;;;;;3.63;1.48;;;12.00;99.90;;;;;;6255489;22;20037;-82
2022/08/02 00:18:18;;;;;;;5.82;2.00;;;12.00;99.90;;;;;;6253425;22;20436;-81
2022/08/02 00:20:44;;;;;;;7.38;2.17;;;12.00;99.90;;;;;;6279742;22;20019;-82
2022/08/02 00:23:11;;;;;;;7.90;2.90;;;12.00;99.90;;;;;;6280820;22;20508;-82
2022/08/02 00:25:37;;;;;;;5.43;2.33;;;12.10;99.90;;;;;;6253332;22;20019;-82
2022/08/02 00:28:03;;;;;;;7.95;3.20;;;12.20;99.90;;;;;;6306740;22;20016;-84
2022/08/02 00:30:28;;;;;;;10.38;3.22;;;12.30;99.90;;;;;;6278328;22;20018;-81
2022/08/02 00:32:54;;;;;;;7.32;3.03;;;12.20;99.90;;;;;;6279396;22;20516;-81
2022/08/02 00:35:20;;;;;;;12.02;3.20;;;12.30;99.90;;;;;;6279456;22;20018;-81
2022/08/02 00:37:48;;;;;;;8.13;4.00;;;12.30;99.90;;;;;;6278706;22;20019;-84
2022/08/02 00:40:14;;;;;;;6.97;2.95;;;12.30;99.90;;;;;;6277252;22;20019;-82
2022/08/02 00:42:39;;;;;;;8.30;2.95;;;12.40;99.90;;;;;;6279057;22;20098;-81
2022/08/02 00:45:08;;;;;;;4.85;2.97;;;12.60;99.90;;;;;;6279260;22;20869;-82
2022/08/02 00:47:39;;;;;;;12.05;3.25;;;12.30;99.90;;;;;;6279231;22;20004;-81
2022/08/02 00:50:05;;;;;;;9.05;2.97;;;12.30;99.90;;;;;;6306334;22;20015;-82
2022/08/02 00:52:30;;;;;;;6.88;3.33;;;12.30;99.90;;;;;;6280226;22;20161;-81
2022/08/02 00:54:56;;;;;;;7.93;3.08;;;12.30;99.90;;;;;;6278211;22;20384;-86
2022/08/02 00:57:22;;;;;;;8.77;2.85;;;12.30;99.90;;;;;;6279577;22;20011;-82
2022/08/02 00:59:47;;;;;;;5.60;2.42;;;12.20;99.90;;;;;;6277996;22;20094;-81
2022/08/02 01:02:13;;;;;;;10.18;3.85;;;12.20;99.90;;;;;;6279288;22;20069;-82
2022/08/02 01:04:39;;;;;;;8.65;3.08;;;12.20;99.90;;;;;;6253219;22;20046;-81
2022/08/02 01:07:04;;;;;;;9.15;2.92;;;12.20;99.90;;;;;;6278264;22;20090;-84
2022/08/02 01:09:30;;;;;;;12.73;3.03;;;12.10;99.90;;;;;;6277525;22;20022;-81
2022/08/02 01:11:56;;;;;;;8.63;3.15;;;12.10;99.90;;;;;;6278523;22;20026;-81
2022/08/02 01:14:37;;;;;;;7.63;3.55;;;12.10;99.90;;;;;;6278831;22;20015;-81
2022/08/02 01:17:22;;;;;;;10.48;3.78;;;12.00;99.90;;;;;;6253478;22;20044;-81
2022/08/02 01:20:28;;;;;;;6.63;3.40;;;12.00;99.90;;;;;;6276426;22;20022;-81
2022/08/02 01:23:41;;;;;;;;;;;;;;;;;;;;;
2022/08/02 01:26:56;;;;;;;;;;;;;;;;;;;;;
2022/08/02 01:29:33;;;;;;;5.07;2.72;;;12.00;99.90;;;;;;6278095;22;20034;-82
2022/08/02 01:32:45;;;;;;;6.35;2.63;;;11.90;99.90;;;;;;6277451;22;20076;-81
2022/08/02 01:35:48;;;;;;;;;;;;;;;;;;;;;
2022/08/02 01:39:02;;;;;;;6.60;2.58;;;11.90;99.90;;;;;;6307567;22;20011;-87
2022/08/02 01:42:36;;;;;;;;;;;;;;;;;;;;;
2022/08/02 01:45:21;;;;;;;7.68;2.65;;;11.90;99.90;;;;;;6127517;22;20053;-83
2022/08/02 01:48:01;;;;;;;4.82;2.33;;;12.00;99.90;;;;;;6280121;22;20053;-82
2022/08/02 01:50:42;;;;;;;4.97;2.78;;;11.90;99.90;;;;;;6304919;22;20108;-81
2022/08/02 01:54:00;;;;;;;4.60;2.78;;;11.90;99.90;;;;;;6255543;22;20022;-83
2022/08/02 01:56:47;;;;;;;12.30;3.70;;;11.90;99.90;;;;;;6224064;22;20023;-82
2022/08/02 01:59:19;;;;;;;9.18;3.13;;;11.90;99.90;;;;;;6277730;22;20011;-81
2022/08/02 02:02:10;;;;;;;;;;;;;;;;;;;;;
2022/08/02 02:04:42;;;;;;;8.30;2.97;;;12.50;99.90;;;;;;6279422;22;20452;-80
2022/08/02 02:07:32;;;;;;;6.55;3.25;;;12.20;99.90;;;;;;6252401;22;20068;-81
2022/08/02 02:10:14;;;;;;;;;;;;;;;;;;;;;
2022/08/02 02:13:22;;;;;;;7.53;3.17;;;12.10;99.90;;;;;;6278622;22;20011;-83
2022/08/02 02:15:53;;;;;;;7.22;3.17;;;12.00;99.90;;;;;;6279290;22;20468;-82
2022/08/02 02:18:28;;;;;;;9.63;3.25;;;11.90;99.90;;;;;;6280789;22;20022;-82
2022/08/02 02:20:54;;;;;;;12.50;3.93;;;11.90;99.90;;;;;;6279267;22;20050;-81
2022/08/02 02:23:20;;;;;;;8.75;3.42;;;11.80;99.90;;;;;;6252669;22;20030;-81
2022/08/02 02:25:46;;;;;;;12.02;3.63;;;11.80;99.90;;;;;;6279087;22;20015;-83
2022/08/02 02:28:28;;;;;;;4.32;2.70;;;11.80;99.90;;;;;;6253129;22;20012;-84
2022/08/02 02:31:02;;;;;;;8.40;3.55;;;11.90;99.90;;;;;;6277105;22;20008;-81
2022/08/02 02:33:30;;;;;;;8.32;2.67;;;11.80;99.90;;;;;;6277360;22;20041;-82
2022/08/02 02:35:58;;;;;;;12.20;3.55;;;11.80;99.90;;;;;;6253021;22;20537;-86
2022/08/02 02:38:27;;;;;;;10.90;3.45;;;11.80;99.90;;;;;;6279104;22;20479;-81
2022/08/02 02:40:54;;;;;;;15.40;3.95;;;11.90;99.90;;;;;;6277495;22;20034;-81
2022/08/02 02:43:21;;;;;;;9.68;3.92;;;12.00;99.90;;;;;;6279822;22;20018;-88
2022/08/02 02:45:48;;;;;;;11.88;3.75;;;12.00;99.90;;;;;;6280082;22;20047;-85
2022/08/02 02:48:14;;;;;;;8.40;4.00;;;11.90;99.90;;;;;;6309144;22;20019;-82
2022/08/02 02:50:41;;;;;;;8.43;4.43;;;12.00;99.90;;;;;;6256392;22;20352;-88
2022/08/02 02:53:09;;;;;;;14.18;4.45;;;12.00;99.90;;;;;;6256810;22;20451;-81
2022/08/02 02:55:35;;;;;;;11.27;4.03;;;12.00;99.90;;;;;;6280822;22;20015;-82
2022/08/02 02:58:01;;;;;;;8.25;4.25;;;12.00;99.90;;;;;;6281463;22;20068;-83
2022/08/02 03:03:16;;;;;;;8.10;3.47;;;12.00;99.90;;;;;;6281454;22;20047;-81
2022/08/02 03:05:42;;;;;;;12.57;4.05;;;12.00;99.90;;;;;;6278181;22;20087;-85
2022/08/02 03:08:07;;;;;;;5.88;3.40;;;12.00;99.90;;;;;;6281378;22;20051;-84
2022/08/02 03:10:33;;;;;;;8.80;3.67;;;12.00;99.90;;;;;;6280003;22;20113;-81
2022/08/02 03:13:00;;;;;;;10.32;4.10;;;12.10;99.90;;;;;;6281106;22;20014;-83
2022/08/02 03:15:27;;;;;;;10.07;4.07;;;12.00;99.90;;;;;;6280861;22;20016;-84
2022/08/02 03:17:53;;;;;;;12.35;4.32;;;12.00;99.90;;;;;;6280492;22;20013;-81
2022/08/02 03:20:21;;;;;;;7.88;4.25;;;12.00;99.90;;;;;;6280530;22;20035;-82
2022/08/02 03:22:49;;;;;;;9.52;5.10;;;11.90;99.90;;;;;;6282454;22;20588;-82
2022/08/02 03:25:16;;;;;;;9.70;4.60;;;11.90;99.90;;;;;;6257732;22;20015;-82
2022/08/02 03:27:42;;;;;;;9.30;3.85;;;12.00;99.90;;;;;;6307922;22;20332;-84
2022/08/02 03:30:10;;;;;;;11.63;4.57;;;12.00;99.90;;;;;;6281684;22;20022;-82
2022/08/02 03:32:37;;;;;;;7.95;4.15;;;12.10;99.90;;;;;;6257685;22;20043;-82
2022/08/02 03:35:05;;;;;;;6.88;3.67;;;12.10;99.90;;;;;;6282062;22;20018;-81
2022/08/02 03:37:34;;;;;;;8.65;3.80;;;12.10;99.90;;;;;;6279497;22;20019;-81
2022/08/02 03:40:00;;;;;;;9.30;4.15;;;12.00;99.90;;;;;;6253643;22;20011;-81
2022/08/02 03:42:27;;;;;;;6.55;4.03;;;12.10;99.90;;;;;;6281599;22;20086;-82
2022/08/02 03:44:54;;;;;;;7.38;4.00;;;12.00;99.90;;;;;;6282070;22;20019;-82
2022/08/02 03:47:21;;;;;;;8.90;3.78;;;12.10;99.90;;;;;;6280933;22;20007;-81
2022/08/02 03:49:47;;;;;;;8.00;3.78;;;12.10;99.90;;;;;;6281025;22;20457;-85
2022/08/02 03:52:13;;;;;;;7.28;3.80;;;12.10;99.90;;;;;;6255047;22;20022;-82
2022/08/02 03:54:39;;;;;;;7.47;3.60;;;12.00;99.90;;;;;;6308474;22;20007;-81
2022/08/02 03:57:08;;;;;;;7.63;3.70;;;12.10;99.90;;;;;;6278967;22;20015;-82
2022/08/02 03:59:43;;;;;;;10.50;4.13;;;12.00;99.90;;;;;;6253063;22;20015;-82
2022/08/02 04:02:09;;;;;;;8.18;3.75;;;12.10;99.90;;;;;;6255058;22;20018;-81
2022/08/02 04:04:35;;;;;;;9.93;4.15;;;12.10;99.90;;;;;;6279447;22;20455;-81
2022/08/02 04:07:01;;;;;;;11.48;3.80;;;12.10;99.90;;;;;;6280365;22;20019;-81
2022/08/02 04:09:27;;;;;;;9.02;4.32;;;12.10;99.90;;;;;;6307790;22;20351;-81
2022/08/02 04:11:52;;;;;;;9.80;4.40;;;12.20;99.90;;;;;;6279531;22;20015;-82
2022/08/02 04:14:18;;;;;;;7.57;4.15;;;12.20;99.90;;;;;;6255472;22;20011;-82
2022/08/02 04:16:46;;;;;;;8.68;4.45;;;12.20;99.90;;;;;;6254257;22;20072;-84
2022/08/02 04:19:41;;;;;;;9.48;3.85;;;12.20;99.90;;;;;;6254637;22;20039;-84
2022/08/02 04:22:13;;;;;;;7.78;4.22;;;12.30;99.90;;;;;;6277641;22;20011;-82
2022/08/02 04:24:46;;;;;;;13.32;5.20;;;12.30;99.90;;;;;;6254629;22;20090;-81
2022/08/02 04:27:12;;;;;;;13.52;4.93;;;12.30;99.90;;;;;;6280530;22;20038;-83
2022/08/02 04:29:39;;;;;;;8.07;4.20;;;12.50;99.90;;;;;;6255694;22;20544;-81
2022/08/02 04:32:06;;;;;;;12.93;4.38;;;12.50;99.90;;;;;;6280927;22;20042;-89
2022/08/02 04:34:34;;;;;;;9.00;4.25;;;12.60;99.90;;;;;;6282397;22;20454;-83
2022/08/02 04:37:00;;;;;;;8.40;4.30;;;12.70;99.90;;;;;;6281361;22;20026;-82
2022/08/02 04:39:39;;;;;;;11.02;5.07;;;12.80;99.90;;;;;;6280145;22;20015;-83
2022/08/02 04:42:05;;;;;;;12.50;5.53;;;12.90;99.90;;;;;;6280886;22;20532;-82
2022/08/02 04:44:31;;;;;;;14.98;5.50;;;13.00;99.90;;;;;;6253740;22;20064;-83
2022/08/02 04:47:01;;;;;;;12.10;3.72;;;13.10;99.90;;;;;;6281548;22;20060;-84
2022/08/02 04:49:28;;;;;;;9.07;4.07;;;13.30;99.90;;;;;;6255350;22;20899;-82
2022/08/02 04:51:53;;;;;;;9.80;4.03;;;13.50;99.90;;;;;;6255598;22;20025;-84
2022/08/02 04:54:19;;;;;;;6.63;3.92;;;13.80;99.90;;;;;;6278500;22;20406;-84
2022/08/02 04:56:45;;;;;;;8.40;4.20;;;13.90;99.90;;;;;;6279842;22;20007;-82
2022/08/02 04:59:11;;;;;;;8.77;3.63;;;13.90;99.90;;;;;;6254214;22;20072;-82
2022/08/02 05:01:38;;;;;;;10.25;4.40;;;14.10;99.90;;;;;;6279964;22;20023;-83
2022/08/02 05:04:04;;;;;;;7.47;3.70;;;14.20;99.90;;;;;;6280649;22;20019;-82
2022/08/02 05:06:32;;;;;;;13.07;4.10;;;14.30;99.90;;;;;;6280155;22;20064;-83
2022/08/02 05:08:58;;;;;;;12.45;4.32;;;14.50;99.90;;;;;;6279718;22;20015;-82
2022/08/02 05:11:24;;;;;;;10.30;3.75;;;14.50;99.90;;;;;;6280301;22;20041;-83
2022/08/02 05:13:50;;;;;;;8.68;3.53;;;15.30;99.90;;;;;;6281255;22;20018;-82
2022/08/02 05:16:16;;;;;;;9.90;3.50;;;14.60;99.90;;;;;;6279607;22;20015;-82
2022/08/02 05:18:41;;;;;;;12.48;3.78;;;14.80;99.90;;;;;;6304696;22;20011;-86
2022/08/02 05:21:08;;;;;;;11.35;3.90;;;15.20;99.90;;;;;;6279177;22;20101;-82
2022/08/02 05:23:33;;;;;;;8.20;3.72;;;15.50;99.90;;;;;;6308525;22;20064;-82
2022/08/02 05:25:59;;;;;;;8.90;3.50;;;16.20;99.90;;;;;;6280324;22;20382;-83
2022/08/02 05:28:24;;;;;;;7.30;2.47;;;17.40;99.90;;;;;;6280707;22;20026;-82
2022/08/02 05:30:50;;;;;;;5.63;1.83;;;18.90;99.90;;;;;;6277901;22;20065;-81
2022/08/02 05:33:16;;;;;;;9.60;2.80;;;20.50;99.90;;;;;;6307418;22;20452;-82
2022/08/02 05:35:42;;;;;;;8.82;2.53;;;21.80;99.90;;;;;;6278770;22;20025;-82
2022/08/02 05:38:10;;;;;;;8.02;2.03;;;23.00;99.90;;;;;;6278292;22;20011;-85
2022/08/02 05:40:36;;;;;;;7.97;2.88;;;24.00;99.90;;;;;;6250951;22;20013;-82
2022/08/02 05:43:02;;;;;;;7.57;2.10;;;24.80;99.90;;;;;;6279036;22;20447;-83
2022/08/02 05:45:32;;;;;;;8.20;2.58;;;25.40;99.90;;;;;;6252591;22;20038;-85
2022/08/02 05:47:59;;;;;;;7.20;2.55;;;26.20;99.90;;;;;;6280779;22;20011;-84
2022/08/02 05:50:27;;;;;;;4.15;1.90;;;26.80;99.90;;;;;;6307338;22;20058;-83
2022/08/02 05:53:04;;;;;;;6.72;2.30;;;27.40;99.90;;;;;;6280867;22;20479;-83
2022/08/02 05:55:46;;;;;;;4.45;1.70;;;27.80;99.60;;;;;;6275632;22;20015;-83
2022/08/02 05:58:34;;;;;;;5.05;2.30;;;28.40;99.20;;;;;;6308986;22;20019;-83
2022/08/02 06:01:02;;;;;;;11.98;2.95;;;28.80;97.10;;;;;;6278397;22;20015;-82
2022/08/02 06:03:35;;;;;;;7.82;2.03;;;29.20;97.80;;;;;;6304311;22;20140;-82
2022/08/02 06:06:28;;;;;;;7.75;1.95;;;29.90;96.80;;;;;;6277799;22;20012;-82
2022/08/02 06:09:02;;;;;;;6.65;1.90;;;30.20;96.00;;;;;;6279855;22;20026;-82
2022/08/02 06:11:42;;;;;;;12.27;3.13;;;30.10;94.80;;;;;;6278268;22;20087;-82
2022/08/02 06:14:18;;;;;;;8.35;2.13;;;29.30;94.90;;;;;;6302869;22;20121;-83
2022/08/02 06:16:51;;;;;;;4.35;1.88;;;28.20;95.30;;;;;;6251882;22;20011;-83
2022/08/02 06:20:06;;;;;;;7.78;2.33;;;27.50;96.20;;;;;;6276005;22;20018;-85
2022/08/02 06:23:05;;;;;;;5.28;1.58;;;26.60;96.30;;;;;;6278280;22;20010;-85
2022/08/02 06:26:07;;;;;;;;;;;;;;;;;;;;;
2022/08/02 06:37:11;;;;;;;;;;;;;;;;;;;;;
2022/08/02 06:40:32;;;;;;;9.30;1.90;;;24.40;99.30;;;;;;6267390;22;20023;-85
2022/08/02 06:43:25;;;;;;;6.07;2.35;;;24.10;99.40;;;;;;6246035;22;20448;-85
2022/08/02 06:46:09;;;;;;;7.90;2.00;;;23.90;99.80;;;;;;6248285;22;20437;-85
2022/08/02 06:49:10;;;;;;;3.50;1.45;;;23.80;99.90;;;;;;6273679;22;20024;-86
2022/08/02 06:51:58;;;;;;;6.57;1.70;;;23.60;99.90;;;;;;6265603;22;20012;-84
2022/08/02 06:55:02;;;;;;;14.70;2.40;;;23.50;99.90;;;;;;6251417;22;20052;-84
2022/08/02 06:58:35;;;;;;;7.38;2.75;;;23.30;99.90;;;;;;6284168;22;20020;-85
2022/08/02 07:01:28;;;;;;;;;;;;;;;;;;;;;
2022/08/02 07:04:35;;;;;;;;;;;;;;;;;;;;;
2022/08/02 07:11:36;;;;;;;7.80;1.60;;;23.30;99.90;;;;;;6209902;23;20016;-85
2022/08/02 07:14:47;;;;;;;;;;;;;;;;;;;;;
2022/08/02 07:18:16;;;;;;;;;;;;;;;;;;;;;
2022/08/02 07:21:10;;;;;;;6.60;2.05;;;23.30;99.90;;;;;;6216324;22;20023;-84
2022/08/02 07:23:36;;;;;;;9.73;2.10;;;23.10;99.90;;;;;;6274542;22;20026;-83
2022/08/02 07:26:02;;;;;;;2.83;0.95;;;22.90;99.90;;;;;;6245633;22;20470;-82
2022/08/02 07:28:28;;;;;;;8.40;1.20;;;22.70;99.90;;;;;;6271562;22;20008;-82
2022/08/02 07:30:53;;;;;;;7.70;1.42;;;22.60;99.90;;;;;;6272969;22;20069;-81
2022/08/02 07:33:19;;;;;;;6.60;1.55;;;22.60;99.90;;;;;;6275828;22;20092;-82
2022/08/02 07:35:45;;;;;;;5.60;1.60;;;22.60;99.90;;;;;;6280411;22;20007;-82
2022/08/02 07:38:10;;;;;;;5.22;1.25;;;22.80;99.90;;;;;;6281779;22;20021;-82
2022/08/02 07:40:36;;;;;;;5.05;1.20;;;23.00;99.90;;;;;;6306766;22;20047;-81
2022/08/02 07:43:01;;;;;;;2.58;1.02;;;23.20;99.90;;;;;;6280895;22;20011;-82
2022/08/02 07:45:27;;;;;;;14.75;1.30;;;23.50;99.90;;;;;;6278883;22;20015;-82
2022/08/02 07:47:55;;;;;;;4.80;1.17;;;23.70;99.90;;;;;;6279417;22;20077;-81
2022/08/02 07:50:21;;;;;;;2.53;0.88;;;23.80;99.90;;;;;;6276611;22;20019;-83
2022/08/02 07:52:56;;;;;;;6.80;1.10;;;23.90;99.90;;;;;;6249143;22;20436;-82
2022/08/02 07:55:27;;;;;;;6.50;1.20;;;24.00;99.90;;;;;;6250517;22;20011;-85
2022/08/02 07:57:53;;;;;;;6.97;1.45;;;24.10;99.90;;;;;;6275446;22;20033;-83
2022/08/02 08:00:18;;;;;;;2.90;1.02;;;24.20;99.90;;;;;;6274072;22;20090;-82
2022/08/02 08:02:45;;;;;;;6.97;2.08;;;24.20;99.70;;;;;;6302485;22;20015;-84
2022/08/02 08:05:47;;;;;;;;;;;;;;;;;;;;;
2022/08/02 08:09:33;;;;;;;;;;;;;;;;;;;;;
2022/08/02 08:13:08;;;;;;;3.60;1.40;;;24.70;98.50;;;;;;6034348;23;20153;-85
2022/08/02 08:41:09;;;;;;;2.42;0.57;;;24.80;96.10;;;;;;6280997;22;20034;-85
2022/08/02 08:44:43;;;;;;;3.67;0.70;;;24.90;96.30;;;;;;6132452;23;20026;-84
2022/08/02 08:50:09;;;;;;;2.30;0.95;;;25.10;96.10;;;;;;6014964;23;20030;-83
2022/08/02 08:52:46;;;;;;;3.97;0.60;;;25.20;95.20;;;;;;6073261;23;20430;-83
2022/08/02 08:55:21;;;;;;;2.13;0.55;;;25.40;96.10;;;;;;6097994;23;20026;-84
2022/08/02 08:58:28;;;;;;;8.63;1.10;;;25.40;96.50;;;;;;6103429;23;20018;-84
2022/08/02 09:01:11;;;;;;;4.53;1.05;;;25.80;96.60;;;;;;6124992;23;20073;-84
2022/08/02 09:03:56;;;;;;;2.35;1.00;;;25.90;95.90;;;;;;6243446;23;20621;-84
2022/08/02 09:07:18;;;;;;;;;;;;;;;;;;;;;
2022/08/02 09:11:36;;;;;;;;;;;;;;;;;;;;;
2022/08/02 09:18:53;;;;;;;;;;;;;;;;;;;;;
2022/08/02 09:37:28;;;;;;;3.22;1.13;;;26.90;95.40;;;;;;5817120;24;20376;-86
2022/08/02 09:41:16;;;;;;;;;;;;;;;;;;;;;
2022/08/02 15:31:07;;;;;;;7.82;2.08;;;26.90;99.90;;;;;;6208527;23;20532;-81
2022/08/02 15:41:49;;;;;;;2.42;1.77;;;26.60;99.90;;;;;;6086567;23;20038;-83
2022/08/02 15:48:54;;;;;;;4.15;1.55;;;26.50;99.90;;;;;;5947048;24;20089;-85
2022/08/02 15:55:53;;;;;;;6.28;1.35;;;26.60;99.90;;;;;;5838292;24;20089;-85
2022/08/02 15:58:50;;;;;;;6.55;1.40;;;26.50;99.90;;;;;;5904907;24;20592;-84
2022/08/02 16:05:36;;;;;;;8.20;1.67;;;26.60;99.90;;;;;;6156436;23;20092;-83
2022/08/02 16:08:16;;;;;;;2.45;1.20;;;26.50;99.90;;;;;;6182040;23;20048;-85
2022/08/02 16:10:54;;;;;;;9.13;1.55;;;26.50;99.90;;;;;;6179935;23;20072;-85
2022/08/02 16:14:44;;;;;;;;;;;;;;;;;;;;;
2022/08/02 16:18:04;;;;;;;;;;;;;;;;;;;;;
2022/08/02 16:21:01;;;;;;;2.25;0.70;;;26.50;99.90;;;;;;6060050;23;20081;-86
2022/08/02 16:24:39;;;;;;;;;;;;;;;;;;;;;
2022/08/02 16:28:00;;;;;;;2.00;0.98;;;26.40;99.70;;;;;;5925426;24;20027;-86
2022/08/02 16:30:54;;;;;;;4.80;1.63;;;26.30;99.80;;;;;;5953165;23;20156;-85
2022/08/02 16:34:02;;;;;;;3.33;1.70;;;26.10;99.90;;;;;;6004574;23;20126;-85
2022/08/02 16:37:00;;;;;;;3.08;1.50;;;26.00;99.90;;;;;;6002466;23;20023;-85
2022/08/02 16:39:36;;;;;;;4.28;1.42;;;26.20;99.90;;;;;;6004551;23;20031;-85
2022/08/02 16:45:26;;;;;;;3.63;1.33;;;26.10;99.90;;;;;;6000433;23;20107;-87
2022/08/02 16:47:58;;;;;;;2.88;1.00;;;26.20;99.90;;;;;;6100137;23;20020;-85
2022/08/02 16:50:48;;;;;;;4.63;1.10;;;26.10;99.90;;;;;;6178844;23;20020;-87
2022/08/02 16:57:19;;;;;;;1.88;0.93;;;26.10;99.90;;;;;;6206790;23;20026;-86
2022/08/02 16:59:44;;;;;;;4.63;1.58;;;26.00;99.90;;;;;;6180368;23;20079;-85
2022/08/02 17:02:37;;;;;;;3.53;1.30;;;25.90;99.90;;;;;;6182168;23;20350;-84
2022/08/02 17:19:18;;;;;;;4.75;1.00;;;25.70;99.90;;;;;;6209309;23;20342;-84
2022/08/02 17:21:43;;;;;;;2.53;1.00;;;25.60;99.90;;;;;;6181385;23;20020;-83
2022/08/02 17:24:12;;;;;;;6.57;1.15;;;25.90;99.90;;;;;;6155397;23;20017;-85
2022/08/02 17:26:41;;;;;;;4.70;1.70;;;25.60;99.90;;;;;;6180228;23;20433;-89
2022/08/02 17:29:22;;;;;;;6.18;1.23;;;25.60;99.90;;;;;;6160122;23;20525;-88
2022/08/02 17:40:03;;;;;;;3.58;1.35;;;25.40;99.90;;;;;;6085543;23;20076;-88
2022/08/02 17:42:29;;;;;;;3.13;1.63;;;25.30;99.90;;;;;;6062639;23;20060;-85
2022/08/02 17:45:02;;;;;;;3.38;1.30;;;25.30;99.90;;;;;;6086243;23;20018;-85
2022/08/02 17:47:29;;;;;;;5.03;1.70;;;25.30;99.90;;;;;;6133820;23;20013;-84
2022/08/02 17:49:57;;;;;;;9.48;1.50;;;25.50;99.90;;;;;;6205513;23;20239;-84
2022/08/02 17:52:26;;;;;;;7.25;1.45;;;25.40;99.90;;;;;;6207950;23;20021;-89
2022/08/02 17:54:52;;;;;;;4.22;1.52;;;25.30;99.90;;;;;;6157392;23;20013;-86
2022/08/02 17:57:18;;;;;;;6.05;1.15;;;25.30;99.90;;;;;;6181582;23;20096;-85
2022/08/02 18:00:06;;;;;;;6.00;1.27;;;25.50;99.90;;;;;;6180286;23;20096;-86
2022/08/02 18:02:32;;;;;;;8.15;1.35;;;25.20;99.90;;;;;;6207121;23;20008;-85
2022/08/02 18:04:59;;;;;;;4.40;1.50;;;25.00;99.90;;;;;;6181018;23;20988;-84
2022/08/02 18:07:28;;;;;;;6.25;1.23;;;25.00;99.90;;;;;;6208879;23;20396;-85
2022/08/02 18:09:53;;;;;;;7.35;1.45;;;25.00;99.90;;;;;;6208504;23;20020;-85
2022/08/02 18:12:19;;;;;;;5.05;1.45;;;24.90;99.90;;;;;;6210808;23;20016;-86
2022/08/02 18:14:45;;;;;;;5.28;1.42;;;24.80;99.90;;;;;;6183553;23;20353;-83
2022/08/02 18:17:14;;;;;;;9.52;1.30;;;24.70;99.90;;;;;;6183507;23;20020;-84
2022/08/02 18:19:40;;;;;;;3.53;1.42;;;24.70;99.90;;;;;;6181382;23;20461;-85
2022/08/02 18:22:05;;;;;;;5.00;1.40;;;24.60;99.90;;;;;;6182342;23;20031;-82
2022/08/02 18:24:31;;;;;;;4.95;1.80;;;24.50;99.90;;;;;;6183314;23;20016;-83
2022/08/02 18:26:57;;;;;;;10.38;1.35;;;24.50;99.90;;;;;;6184192;23;20020;-83
2022/08/02 18:29:24;;;;;;;3.80;1.30;;;24.50;99.90;;;;;;6181666;23;20027;-83
2022/08/02 18:31:49;;;;;;;4.20;1.08;;;24.40;99.90;;;;;;6181467;23;20020;-83
2022/08/02 18:34:16;;;;;;;7.13;1.45;;;24.40;99.90;;;;;;6183123;23;20507;-83
2022/08/02 18:36:42;;;;;;;5.78;1.67;;;24.30;99.90;;;;;;6183313;23;20087;-83
2022/08/02 18:39:07;;;;;;;6.22;2.20;;;24.20;99.90;;;;;;6182149;23;20103;-83
2022/08/02 18:41:34;;;;;;;7.28;1.73;;;24.10;99.90;;;;;;6182297;23;20024;-82
2022/08/02 18:44:01;;;;;;;5.35;1.40;;;24.00;99.90;;;;;;6183154;23;20083;-83
2022/08/02 18:46:29;;;;;;;8.30;1.85;;;24.00;99.90;;;;;;6182260;23;20012;-84
2022/08/02 18:49:02;;;;;;;6.47;2.40;;;23.90;99.90;;;;;;6183385;23;20020;-83
2022/08/02 18:51:27;;;;;;;10.80;2.03;;;23.80;99.90;;;;;;6179983;23;20013;-83
2022/08/02 18:53:53;;;;;;;6.65;1.67;;;23.80;99.90;;;;;;6210758;23;20027;-85
2022/08/02 18:56:20;;;;;;;15.93;2.70;;;23.70;99.90;;;;;;6181675;23;20353;-86
2022/08/02 18:58:49;;;;;;;10.40;2.42;;;23.60;99.90;;;;;;6157924;23;20084;-86
2022/08/02 19:01:24;;;;;;;6.00;1.67;;;23.60;99.90;;;;;;6183263;23;20016;-86
2022/08/02 19:03:49;;;;;;;;;;;23.50;99.90;;;;;;6160084;23;20438;-86
2022/08/02 19:06:15;;;;;;;11.75;1.80;;;23.50;99.90;;;;;;6183952;23;19969;-82
2022/08/02 19:08:41;;;;;;;11.20;2.08;;;23.40;99.90;;;;;;6180645;23;20043;-85
2022/08/02 19:11:06;;;;;;;10.05;2.10;;;23.30;99.90;;;;;;6156507;23;20012;-85
2022/08/02 19:13:33;;;;;;;8.73;2.40;;;23.20;99.90;;;;;;6183526;23;20024;-84
2022/08/02 19:16:01;;;;;;;7.13;1.95;;;23.10;99.90;;;;;;6177505;23;20056;-84
2022/08/02 19:18:27;;;;;;;11.40;2.72;;;23.00;99.90;;;;;;6183096;23;20717;-84
2022/08/02 19:20:53;;;;;;;10.48;1.65;;;23.00;99.90;;;;;;6180057;23;20047;-82
2022/08/02 19:23:19;;;;;;;10.43;2.20;;;22.90;99.90;;;;;;6180558;23;20709;-84
2022/08/02 19:25:44;;;;;;;9.52;2.10;;;22.80;99.90;;;;;;6181560;23;20017;-85
2022/08/02 19:28:10;;;;;;;10.73;1.83;;;22.70;99.90;;;;;;6181686;23;20013;-84
2022/08/02 19:30:35;;;;;;;5.93;1.52;;;22.60;99.90;;;;;;6179446;23;20020;-83
2022/08/02 19:33:01;;;;;;;9.88;2.30;;;22.50;99.90;;;;;;6181348;23;20020;-84
2022/08/02 19:35:28;;;;;;;11.63;2.45;;;22.50;99.90;;;;;;6179947;23;20044;-84
2022/08/02 19:37:54;;;;;;;7.00;2.03;;;22.30;99.90;;;;;;6181945;23;20013;-83
2022/08/02 19:40:22;;;;;;;11.05;2.83;;;22.20;99.90;;;;;;6208024;23;20035;-84
2022/08/02 19:42:49;;;;;;;8.27;2.67;;;22.10;99.90;;;;;;6181034;23;20013;-83
2022/08/02 19:45:15;;;;;;;8.52;1.98;;;22.00;99.90;;;;;;6180375;23;20012;-81
2022/08/02 19:47:40;;;;;;;10.60;1.92;;;21.90;99.90;;;;;;6208515;23;20024;-83
2022/08/02 19:50:11;;;;;;;7.85;2.10;;;21.80;99.90;;;;;;6180282;23;20056;-84
2022/08/02 19:52:41;;;;;;;5.38;1.75;;;21.80;99.90;;;;;;6180937;23;20087;-84
2022/08/02 19:55:07;;;;;;;7.18;2.10;;;21.70;99.90;;;;;;6180969;23;20069;-84
2022/08/02 19:57:33;;;;;;;5.53;1.60;;;21.60;99.90;;;;;;6207132;23;20090;-84
2022/08/02 20:00:00;;;;;;;9.65;1.98;;;21.50;99.90;;;;;;6206119;23;20050;-84
2022/08/02 20:02:26;;;;;;;8.05;1.70;;;21.50;99.90;;;;;;6180956;23;20361;-82
2022/08/02 20:04:52;;;;;;;6.60;2.42;;;21.40;99.90;;;;;;6180265;23;20019;-84
2022/08/02 20:07:17;;;;;;;3.92;1.42;;;21.40;99.90;;;;;;6182263;23;20012;-84
2022/08/02 20:09:43;;;;;;;11.00;3.25;;;21.30;99.90;;;;;;6205205;23;20020;-81
2022/08/02 20:12:09;;;;;;;6.70;1.80;;;21.20;99.90;;;;;;6155759;23;20031;-84
2022/08/02 20:14:35;;;;;;;11.38;2.63;;;21.10;99.90;;;;;;6180601;23;20330;-81
2022/08/02 20:17:03;;;;;;;7.15;1.33;;;21.00;99.90;;;;;;6206975;23;20070;-84
2022/08/02 20:19:29;;;;;;;9.90;2.67;;;21.00;99.90;;;;;;6205680;23;20024;-82
2022/08/02 20:21:55;;;;;;;8.77;2.47;;;20.80;99.90;;;;;;6179815;23;20818;-82
2022/08/02 20:24:21;;;;;;;10.88;2.28;;;20.80;99.90;;;;;;6178322;23;20016;-83
2022/08/02 20:26:46;;;;;;;9.23;2.00;;;20.70;99.90;;;;;;6155177;23;20066;-82
2022/08/02 20:29:12;;;;;;;10.70;1.67;;;20.70;99.90;;;;;;6180640;23;20029;-84
2022/08/02 20:31:38;;;;;;;14.23;2.50;;;20.60;99.90;;;;;;6181012;23;20065;-81
2022/08/02 20:34:03;;;;;;;16.83;2.40;;;20.60;99.90;;;;;;6181592;23;20043;-83
2022/08/02 20:36:29;;;;;;;5.32;1.63;;;20.60;99.90;;;;;;6180523;23;20594;-84
2022/08/02 20:38:54;;;;;;;8.82;1.77;;;20.50;99.90;;;;;;6181136;23;20626;-84
2022/08/02 20:41:22;;;;;;;6.93;1.83;;;20.50;99.90;;;;;;6179642;23;20459;-83
2022/08/02 20:43:48;;;;;;;9.25;1.75;;;20.50;99.90;;;;;;6154958;23;20016;-82
2022/08/02 20:46:13;;;;;;;5.50;1.52;;;20.40;99.90;;;;;;6179456;23;20024;-83
2022/08/02 20:48:39;;;;;;;8.52;2.20;;;20.40;99.90;;;;;;6180086;23;20036;-85
2022/08/02 20:51:04;;;;;;;11.82;2.08;;;20.30;99.90;;;;;;6180025;23;20071;-83
2022/08/02 20:53:30;;;;;;;7.53;1.52;;;20.30;99.90;;;;;;6205512;23;20012;-84
2022/08/02 20:55:58;;;;;;;7.95;1.52;;;20.20;99.90;;;;;;6179884;23;20016;-84
2022/08/02 20:58:24;;;;;;;6.47;1.50;;;20.20;99.90;;;;;;6181252;23;20696;-84
2022/08/02 21:00:52;;;;;;;6.57;1.65;;;20.20;99.90;;;;;;6179190;23;20059;-84
2022/08/02 21:03:18;;;;;;;9.93;2.65;;;20.20;99.90;;;;;;6208642;23;20394;-84
2022/08/02 21:05:44;;;;;;;10.05;1.95;;;20.20;99.90;;;;;;6180726;23;20023;-84
2022/08/02 21:08:12;;;;;;;14.07;2.67;;;20.10;99.90;;;;;;6181685;23;20070;-84
2022/08/02 21:10:38;;;;;;;5.60;1.48;;;20.10;99.90;;;;;;6179163;23;20020;-84
2022/08/02 21:13:04;;;;;;;9.45;1.80;;;20.10;99.90;;;;;;6179585;23;20034;-84
2022/08/02 21:15:31;;;;;;;9.80;2.00;;;20.10;99.90;;;;;;6155822;23;20434;-84
2022/08/02 21:17:57;;;;;;;4.40;1.13;;;20.00;99.90;;;;;;6181241;23;20450;-84
2022/08/02 21:20:23;;;;;;;6.93;1.80;;;20.00;99.90;;;;;;6180176;23;20035;-84
2022/08/02 21:22:49;;;;;;;7.70;1.63;;;19.90;99.90;;;;;;6155909;23;20100;-84
2022/08/02 21:25:17;;;;;;;4.78;1.83;;;19.90;99.90;;;;;;6179401;23;20017;-82
2022/08/02 21:27:43;;;;;;;8.15;1.73;;;19.80;99.90;;;;;;6182045;23;20044;-84
2022/08/02 21:30:09;;;;;;;7.47;1.70;;;19.80;99.90;;;;;;6180715;23;20024;-83